createdAt,value
2023-05-06T00:01:20.779Z,67486.28
2023-05-06T00:03:25.019Z,69146.69
2023-05-06T00:05:27.880Z,72781.63
2023-05-06T00:07:30.557Z,70458.91
2023-05-06T00:09:33.370Z,73119.88
2023-05-06T00:11:36.100Z,75766.66
2023-05-06T00:13:38.743Z,76095.50
2023-05-06T00:15:41.557Z,76086.97
2023-05-06T00:17:44.648Z,75768.59
2023-05-06T00:19:49.560Z,77098.09
2023-05-06T00:21:52.663Z,76433.63
2023-05-06T00:23:55.794Z,78419.97
2023-05-06T00:25:58.600Z,81074.03
2023-05-06T00:28:01.336Z,81078.19
2023-05-06T00:30:04.354Z,77417.69
2023-05-06T00:32:07.182Z,73105.31
2023-05-06T00:34:10.845Z,71436.84
2023-05-06T00:36:14.929Z,72424.63
2023-05-06T00:38:17.840Z,74090.91
2023-05-06T00:40:20.475Z,73434.06
2023-05-06T00:42:23.512Z,66795.44
2023-05-06T00:44:26.310Z,68105.63
2023-05-06T00:46:29.305Z,70738.53
2023-05-06T00:48:32.091Z,75381.72
2023-05-06T00:50:36.033Z,76704.22
2023-05-06T00:52:40.104Z,77376.25
2023-05-06T00:54:42.965Z,69736.25
2023-05-06T00:56:45.761Z,62777.56
2023-05-06T00:58:49.496Z,59799.50
2023-05-06T01:00:52.497Z,54514.53
2023-05-06T01:02:55.294Z,41003.19
2023-05-06T01:04:58.542Z,26556.69
2023-05-06T01:07:08.887Z,21312.78
2023-05-06T01:09:20.837Z,17062.56
2023-05-06T01:11:30.858Z,18369.13
2023-05-06T01:13:43.727Z,16082.69
2023-05-06T01:15:48.055Z,12159.97
2023-05-06T01:17:54.469Z,748.88
2023-05-06T01:20:01.703Z,-17373.22
2023-05-06T01:22:06.781Z,-9329.72
2023-05-06T01:24:10.841Z,-4781.34
2023-05-06T01:26:13.486Z,-5756.69
2023-05-06T01:28:16.113Z,-2830.22
2023-05-06T01:30:20.648Z,14445.91
2023-05-06T01:32:43.957Z,23277.81
2023-05-06T01:34:54.869Z,26551.69
2023-05-06T01:37:09.085Z,30481.63
2023-05-06T01:39:18.065Z,32123.09
2023-05-06T01:41:21.964Z,31796.16
2023-05-06T01:43:29.235Z,26874.88
2023-05-06T01:45:34.834Z,15753.06
2023-05-06T01:47:38.552Z,12158.78
2023-05-06T01:49:41.491Z,5308.97
2023-05-06T01:51:48.795Z,-3155.59
2023-05-06T01:53:51.530Z,-2180.09
2023-05-06T01:55:55.632Z,24254.50
2023-05-06T01:57:58.292Z,25892.91
2023-05-06T02:00:00.995Z,20657.06
2023-05-06T02:02:03.833Z,27207.16
2023-05-06T02:04:07.348Z,26548.72
2023-05-06T02:06:09.258Z,19348.66
2023-05-06T02:08:11.929Z,8894.78
2023-05-06T02:10:14.615Z,-878.69
2023-05-06T02:12:18.727Z,-3805.94
2023-05-06T02:14:21.399Z,-12249.97
2023-05-06T02:16:24.208Z,748.28
2023-05-06T02:18:26.934Z,-12249.28
2023-05-06T02:20:29.742Z,-16514.41
2023-05-06T02:22:32.513Z,-17419.41
2023-05-06T02:24:35.240Z,-7380.19
2023-05-06T02:26:38.008Z,-6406.25
2023-05-06T02:28:42.325Z,-14710.66
2023-05-06T02:30:45.494Z,-12249.28
2023-05-06T02:32:48.280Z,-6730.72
2023-05-06T02:34:51.672Z,7590.41
2023-05-06T02:36:54.434Z,1401.16
2023-05-06T02:38:57.159Z,-12898.88
2023-05-06T02:40:59.948Z,-13547.47
2023-05-06T02:43:02.828Z,-5431.13
2023-05-06T02:45:08.746Z,-2830.50
2023-05-06T02:47:11.661Z,422.69
2023-05-06T02:49:14.316Z,5308.00
2023-05-06T02:51:17.191Z,4653.94
2023-05-06T02:53:19.887Z,20647.78
2023-05-06T02:55:22.618Z,18686.16
2023-05-06T02:57:25.640Z,23260.19
2023-05-06T02:59:28.270Z,27839.31
2023-05-06T03:01:32.370Z,38337.06
2023-05-06T03:03:35.136Z,46551.41
2023-05-06T03:05:37.842Z,58411.53
2023-05-06T03:07:40.777Z,66354.94
2023-05-06T03:09:43.500Z,71314.38
2023-05-06T03:11:46.260Z,73628.81
2023-05-06T03:13:49.042Z,74628.81
2023-05-06T03:15:53.783Z,72975.03
2023-05-06T03:17:57.974Z,69006.97
2023-05-06T03:20:00.916Z,60741.81
2023-05-06T03:22:03.653Z,54136.78
2023-05-06T03:24:07.199Z,50507.19
2023-05-06T03:26:10.053Z,46223.13
2023-05-06T03:28:13.040Z,44566.09
2023-05-06T03:30:15.955Z,46209.16
2023-05-06T03:32:19.177Z,38649.50
2023-05-06T03:34:23.195Z,40623.09
2023-05-06T03:36:27.931Z,34382.75
2023-05-06T03:38:30.742Z,47839.19
2023-05-06T03:40:33.746Z,60037.53
2023-05-06T03:42:36.515Z,60039.13
2023-05-06T03:44:39.219Z,54755.00
2023-05-06T03:46:42.206Z,50467.00
2023-05-06T03:48:44.957Z,53428.75
2023-05-06T03:50:49.128Z,54098.22
2023-05-06T03:52:52.351Z,49807.75
2023-05-06T03:54:55.061Z,50467.91
2023-05-06T03:56:57.848Z,49145.13
2023-05-06T03:59:00.893Z,55067.19
2023-05-06T04:01:04.305Z,57374.66
2023-05-06T04:03:07.120Z,55738.56
2023-05-06T04:05:10.308Z,47836.66
2023-05-06T04:07:14.562Z,42903.66
2023-05-06T04:09:17.319Z,36010.34
2023-05-06T04:11:20.028Z,39940.16
2023-05-06T04:13:22.886Z,49810.38
2023-05-06T04:15:25.721Z,51446.63
2023-05-06T04:17:28.432Z,57367.63
2023-05-06T04:19:32.098Z,59364.97
2023-05-06T04:21:34.796Z,55403.56
2023-05-06T04:23:39.070Z,50143.56
2023-05-06T04:25:42.608Z,48164.41
2023-05-06T04:27:45.400Z,47834.53
2023-05-06T04:29:48.271Z,47176.16
2023-05-06T04:31:51.536Z,47505.09
2023-05-06T04:33:54.792Z,44879.78
2023-05-06T04:35:57.540Z,37005.31
2023-05-06T04:38:00.309Z,22918.22
2023-05-06T04:40:06.273Z,9209.44
2023-05-06T04:42:09.127Z,12466.44
2023-05-06T04:44:11.817Z,13770.63
2023-05-06T04:46:14.567Z,9531.72
2023-05-06T04:48:18.859Z,4647.06
2023-05-06T04:50:24.361Z,-12244.25
2023-05-06T04:52:33.054Z,-23573.63
2023-05-06T04:54:35.746Z,-23582.16
2023-05-06T04:56:39.780Z,-23576.16
2023-05-06T04:58:42.680Z,-23576.47
2023-05-06T05:00:45.393Z,-23580.09
2023-05-06T05:02:48.332Z,-23586.91
2023-05-06T05:04:51.156Z,-23582.47
2023-05-06T05:06:53.803Z,-23589.28
2023-05-06T05:08:57.093Z,-23589.91
2023-05-06T05:10:59.781Z,-23584.38
2023-05-06T05:13:03.976Z,-23585.66
2023-05-06T05:15:07.915Z,-23584.53
2023-05-06T05:17:10.947Z,-23585.00
2023-05-06T05:19:13.707Z,-23589.75
2023-05-06T05:21:16.875Z,-23582.16
2023-05-06T05:23:19.613Z,-23580.28
2023-05-06T05:25:22.300Z,-23585.81
2023-05-06T05:27:25.026Z,-23581.22
2023-05-06T05:29:29.058Z,-23586.28
2023-05-06T05:31:32.081Z,-23589.75
2023-05-06T05:33:34.817Z,-23590.53
2023-05-06T05:35:37.589Z,-23584.06
2023-05-06T05:37:40.337Z,-23593.53
2023-05-06T05:39:42.977Z,-23600.66
2023-05-06T05:41:45.743Z,-23599.22
2023-05-06T05:43:48.498Z,-23606.34
2023-05-06T05:45:52.564Z,-23605.84
2023-05-06T05:47:55.402Z,-23603.19
2023-05-06T05:49:58.070Z,-23595.91
2023-05-06T05:52:00.795Z,-23591.66
2023-05-06T05:54:03.493Z,-23597.97
2023-05-06T05:56:07.003Z,-23596.38
2023-05-06T05:58:11.585Z,-23607.13
2023-05-06T06:00:15.105Z,-23617.22
2023-05-06T06:02:19.144Z,-23617.53
2023-05-06T06:04:22.083Z,-23612.19
2023-05-06T06:06:25.285Z,-23616.91
2023-05-06T06:08:29.688Z,-23631.44
2023-05-06T06:10:32.372Z,-23634.44
2023-05-06T06:12:35.101Z,-23645.31
2023-05-06T06:14:37.844Z,-23638.69
2023-05-06T06:16:40.593Z,-23640.28
2023-05-06T06:18:44.742Z,-23646.28
2023-05-06T06:20:47.433Z,-23676.38
2023-05-06T06:22:50.171Z,-23669.13
2023-05-06T06:24:53.725Z,-23670.09
2023-05-06T06:26:56.474Z,-23658.56
2023-05-06T06:28:59.147Z,-23666.78
2023-05-06T06:31:02.077Z,-23668.34
2023-05-06T06:33:05.025Z,-23655.75
2023-05-06T06:35:09.567Z,-23669.94
2023-05-06T06:37:13.119Z,-23646.28
2023-05-06T06:39:15.858Z,-23641.84
2023-05-06T06:41:18.627Z,-23651.00
2023-05-06T06:43:21.431Z,-23641.84
2023-05-06T06:45:24.150Z,-23635.69
2023-05-06T06:47:26.944Z,-23624.66
2023-05-06T06:49:29.905Z,-23626.41
2023-05-06T06:51:33.926Z,-23634.13
2023-05-06T06:53:36.782Z,-23633.81
2023-05-06T06:55:39.593Z,-23633.97
2023-05-06T06:57:42.276Z,-23636.81
2023-05-06T06:59:45.190Z,-23639.50
2023-05-06T07:01:47.934Z,-23653.22
2023-05-06T07:03:50.695Z,-23651.00
2023-05-06T07:05:53.363Z,-23645.00
2023-05-06T07:07:57.402Z,-23639.34
2023-05-06T07:10:00.287Z,-23643.28
2023-05-06T07:12:03.075Z,-23666.31
2023-05-06T07:14:05.771Z,-23670.88
2023-05-06T07:16:08.568Z,-23658.56
2023-05-06T07:18:11.298Z,-23660.00
2023-05-06T07:20:14.317Z,-23660.16
2023-05-06T07:22:17.103Z,-23652.25
2023-05-06T07:24:21.188Z,-23651.63
2023-05-06T07:26:23.924Z,-23654.00
2023-05-06T07:28:26.794Z,-23659.84
2023-05-06T07:30:29.533Z,-23669.28
2023-05-06T07:32:32.343Z,-23687.41
2023-05-06T07:34:36.082Z,-23664.41
2023-05-06T07:36:40.848Z,-23676.38
2023-05-06T07:38:43.648Z,-23687.41
2023-05-06T07:40:47.738Z,-23688.84
2023-05-06T07:42:50.410Z,-23715.75
2023-05-06T07:44:53.127Z,-23733.22
2023-05-06T07:46:55.969Z,-23750.22
2023-05-06T07:48:58.757Z,-23764.38
2023-05-06T07:51:01.917Z,-23772.84
2023-05-06T07:53:04.985Z,-23695.28
2023-05-06T07:55:10.087Z,-23684.59
2023-05-06T07:57:14.681Z,-23665.50
2023-05-06T07:59:17.415Z,-23660.16
2023-05-06T08:01:20.101Z,-23675.28
2023-05-06T08:03:22.954Z,-23660.47
2023-05-06T08:05:25.759Z,-23691.06
2023-05-06T08:07:28.658Z,-23666.94
2023-05-06T08:09:31.356Z,-23674.34
2023-05-06T08:11:34.116Z,-23675.44
2023-05-06T08:13:38.230Z,-23691.69
2023-05-06T08:15:41.322Z,-23716.22
2023-05-06T08:17:44.111Z,-23698.28
2023-05-06T08:19:46.941Z,-23704.28
2023-05-06T08:21:50.485Z,-23703.16
2023-05-06T08:23:53.678Z,-23712.94
2023-05-06T08:25:56.346Z,-23736.69
2023-05-06T08:27:59.151Z,-23746.44
2023-05-06T08:30:03.279Z,-23712.31
2023-05-06T08:32:06.553Z,-23711.97
2023-05-06T08:34:09.442Z,-23726.00
2023-05-06T08:36:12.151Z,-23717.97
2023-05-06T08:38:14.859Z,-23724.72
2023-05-06T08:40:20.538Z,-23718.28
2023-05-06T08:42:26.079Z,-23733.56
2023-05-06T08:44:28.925Z,-23723.16
2023-05-06T08:46:33.092Z,-23715.13
2023-05-06T08:48:37.372Z,-23748.00
2023-05-06T08:50:43.214Z,-23747.22
2023-05-06T08:52:46.279Z,-23746.44
2023-05-06T08:54:53.531Z,-23756.81
2023-05-06T08:56:58.548Z,-23765.16
2023-05-06T08:59:01.676Z,-23770.34
2023-05-06T09:01:05.428Z,-23792.63
2023-05-06T09:03:09.562Z,-23805.81
2023-05-06T09:05:12.805Z,-23741.56
2023-05-06T09:07:16.313Z,-23710.56
2023-05-06T09:09:19.154Z,-23722.53
2023-05-06T09:11:26.486Z,-23729.94
2023-05-06T09:13:29.230Z,-23746.13
2023-05-06T09:15:40.724Z,-23754.94
2023-05-06T09:17:43.525Z,-23748.16
2023-05-06T09:19:47.757Z,-23744.56
2023-05-06T09:21:51.932Z,-23758.72
2023-05-06T09:23:54.697Z,-23798.44
2023-05-06T09:25:58.130Z,-23822.44
2023-05-06T09:28:08.966Z,-23821.34
2023-05-06T09:30:13.439Z,-23855.38
2023-05-06T09:32:16.857Z,-23887.16
2023-05-06T09:34:21.135Z,-23897.31
2023-05-06T09:36:27.516Z,-23889.50
2023-05-06T09:38:30.248Z,-23867.59
2023-05-06T09:40:33.406Z,-23879.78
2023-05-06T09:42:36.213Z,-23833.91
2023-05-06T09:44:38.988Z,-23832.47
2023-05-06T09:46:42.222Z,-23802.69
2023-05-06T09:48:45.983Z,-23788.72
2023-05-06T09:50:49.956Z,-23834.38
2023-05-06T09:52:56.116Z,-23876.66
2023-05-06T09:54:59.355Z,-23893.56
2023-05-06T09:57:03.710Z,-23883.53
2023-05-06T09:59:07.714Z,-23905.44
2023-05-06T10:01:15.189Z,-23886.69
2023-05-06T10:03:23.301Z,-23908.09
2023-05-06T10:05:27.026Z,-23851.91
2023-05-06T10:07:30.683Z,-23887.63
2023-05-06T10:09:35.866Z,-23930.75
2023-05-06T10:11:38.567Z,-23906.06
2023-05-06T10:13:42.312Z,-23886.69
2023-05-06T10:15:47.226Z,-23851.28
2023-05-06T10:17:52.840Z,-23834.69
2023-05-06T10:19:59.842Z,-23853.78
2023-05-06T10:22:09.834Z,-23863.66
2023-05-06T10:24:14.087Z,-23902.63
2023-05-06T10:26:20.897Z,-23818.84
2023-05-06T10:28:30.496Z,-23863.97
2023-05-06T10:30:35.288Z,-23907.63
2023-05-06T10:32:42.351Z,-23830.13
2023-05-06T10:34:54.129Z,-23787.75
2023-05-06T10:37:00.150Z,-23827.94
2023-05-06T10:39:04.634Z,-23805.19
2023-05-06T10:41:09.142Z,-23781.00
2023-05-06T10:43:27.254Z,-23834.06
2023-05-06T10:45:30.034Z,-23835.31
2023-05-06T10:48:07.334Z,-23775.66
2023-05-06T10:50:23.779Z,-23814.13
2023-05-06T10:52:26.707Z,-23807.69
2023-05-06T10:54:29.428Z,-23825.59
2023-05-06T10:56:33.531Z,-23793.56
2023-05-06T10:58:38.516Z,-23840.63
2023-05-06T11:00:41.431Z,-23804.88
2023-05-06T11:02:47.404Z,-23803.63
2023-05-06T11:05:00.551Z,-23849.41
2023-05-06T11:07:10.776Z,-23827.31
2023-05-06T11:09:18.375Z,-23813.03
2023-05-06T11:11:50.904Z,-23794.84
2023-05-06T11:13:55.430Z,-23824.00
2023-05-06T11:16:00.212Z,-23828.72
2023-05-06T11:18:45.978Z,-23831.84
2023-05-06T11:20:48.685Z,-23834.38
2023-05-06T11:22:51.633Z,-23825.28
2023-05-06T11:24:54.357Z,-23836.88
2023-05-06T11:26:58.843Z,-23837.97
2023-05-06T11:29:04.036Z,-23842.03
2023-05-06T11:31:07.878Z,-23832.00
2023-05-06T11:33:18.486Z,-23846.13
2023-05-06T11:35:22.991Z,-23827.63
2023-05-06T11:37:27.057Z,-23838.75
2023-05-06T11:39:32.323Z,-23856.63
2023-05-06T11:41:40.860Z,-23871.81
2023-05-06T11:43:47.081Z,-23810.06
2023-05-06T11:45:50.678Z,-23825.75
2023-05-06T11:47:55.544Z,-23802.38
2023-05-06T11:49:59.012Z,-23781.34
2023-05-06T11:52:04.838Z,-23766.56
2023-05-06T11:54:09.485Z,-23777.41
2023-05-06T11:56:13.092Z,-23786.97
2023-05-06T11:58:16.458Z,-23783.38
2023-05-06T12:00:21.194Z,-23782.75
2023-05-06T12:02:24.083Z,-23778.97
2023-05-06T12:04:26.923Z,-23792.47
2023-05-06T12:06:35.130Z,-23789.81
2023-05-06T12:08:39.933Z,-23796.56
2023-05-06T12:10:43.126Z,-23794.53
2023-05-06T12:12:45.961Z,-23785.72
2023-05-06T12:14:50.412Z,-23790.44
2023-05-06T12:16:55.991Z,-23776.00
2023-05-06T12:18:59.163Z,-23769.22
2023-05-06T12:21:03.777Z,-23778.50
2023-05-06T12:23:07.283Z,-23772.22
2023-05-06T12:25:18.374Z,-23777.25
2023-05-06T12:27:34.657Z,-23784.78
2023-05-06T12:29:37.452Z,-23773.63
2023-05-06T12:31:40.524Z,-23803.63
2023-05-06T12:33:48.802Z,-23818.53
2023-05-06T12:35:54.697Z,-23827.78
2023-05-06T12:37:57.913Z,-23826.38
2023-05-06T12:40:01.251Z,-23822.44
2023-05-06T12:42:06.157Z,-23823.06
2023-05-06T12:44:34.481Z,-23840.00
2023-05-06T12:46:37.263Z,-23841.56
2023-05-06T12:48:40.596Z,-23833.28
2023-05-06T12:50:45.836Z,-23843.00
2023-05-06T12:52:48.721Z,-23814.91
2023-05-06T12:54:52.656Z,-23820.25
2023-05-06T12:56:55.596Z,-23831.84
2023-05-06T12:59:01.664Z,-23845.66
2023-05-06T13:01:04.979Z,-23834.53
2023-05-06T13:03:07.900Z,-23824.16
2023-05-06T13:05:10.927Z,-23812.09
2023-05-06T13:07:13.755Z,-23833.75
2023-05-06T13:09:16.898Z,-23850.66
2023-05-06T13:11:21.506Z,-23827.47
2023-05-06T13:13:24.436Z,-23824.16
2023-05-06T13:15:28.758Z,-23827.63
2023-05-06T13:17:31.678Z,-23813.66
2023-05-06T13:19:34.617Z,-23810.69
2023-05-06T13:21:37.619Z,-23807.06
2023-05-06T13:23:46.728Z,-23790.75
2023-05-06T13:26:03.655Z,-23806.75
2023-05-06T13:28:07.773Z,-23803.47
2023-05-06T13:30:11.157Z,-23802.06
2023-05-06T13:32:15.469Z,-23794.84
2023-05-06T13:34:18.221Z,-23801.28
2023-05-06T13:36:21.031Z,-23803.31
2023-05-06T13:38:24.003Z,-23805.66
2023-05-06T13:40:26.842Z,-23801.56
2023-05-06T13:42:29.741Z,-23804.56
2023-05-06T13:44:33.092Z,-23798.91
2023-05-06T13:46:36.011Z,-23819.31
2023-05-06T13:48:40.174Z,-23832.81
2023-05-06T13:50:43.328Z,-23824.31
2023-05-06T13:52:46.050Z,-23827.47
2023-05-06T13:54:48.908Z,-23825.41
2023-05-06T13:56:51.734Z,-23824.00
2023-05-06T13:58:54.681Z,-23812.09
2023-05-06T14:00:57.633Z,-23809.91
2023-05-06T14:03:00.758Z,-23806.28
2023-05-06T14:05:05.946Z,-23810.53
2023-05-06T14:07:08.828Z,-23822.13
2023-05-06T14:09:12.208Z,-23815.38
2023-05-06T14:11:15.056Z,-23811.00
2023-05-06T14:13:18.184Z,-23809.59
2023-05-06T14:15:21.240Z,-23818.06
2023-05-06T14:17:24.166Z,-23817.13
2023-05-06T14:19:27.191Z,-23799.22
2023-05-06T14:21:31.973Z,-23809.75
2023-05-06T14:23:34.916Z,-23797.97
2023-05-06T14:25:38.029Z,-23813.97
2023-05-06T14:27:40.829Z,-23826.84
2023-05-06T14:29:46.034Z,-23803.00
2023-05-06T14:31:48.848Z,-23823.06
2023-05-06T14:33:51.611Z,-23817.75
2023-05-06T14:35:54.390Z,-23810.06
2023-05-06T14:37:58.654Z,-23822.91
2023-05-06T14:40:01.496Z,-23822.28
2023-05-06T14:42:04.419Z,-23830.13
2023-05-06T14:44:07.196Z,-23836.41
2023-05-06T14:46:11.270Z,-23833.91
2023-05-06T14:48:14.158Z,-23826.84
2023-05-06T14:50:16.985Z,-23821.50
2023-05-06T14:52:20.162Z,-23822.75
2023-05-06T14:54:26.733Z,-23824.94
2023-05-06T14:56:29.591Z,-23819.31
2023-05-06T14:58:32.388Z,-23817.13
2023-05-06T15:00:35.297Z,-23806.75
2023-05-06T15:02:40.566Z,-23810.69
2023-05-06T15:04:43.475Z,-23817.13
2023-05-06T15:06:46.219Z,-23814.44
2023-05-06T15:08:49.227Z,-23810.22
2023-05-06T15:10:53.442Z,-23815.22
2023-05-06T15:12:56.285Z,-23802.06
2023-05-06T15:14:59.053Z,-23819.63
2023-05-06T15:17:01.848Z,-23814.75
2023-05-06T15:19:04.729Z,-23811.16
2023-05-06T15:21:07.657Z,-23814.59
2023-05-06T15:23:10.643Z,-23813.50
2023-05-06T15:25:22.407Z,-23825.41
2023-05-06T15:27:30.794Z,-23811.31
2023-05-06T15:29:33.566Z,-23818.69
2023-05-06T15:31:39.101Z,-23817.13
2023-05-06T15:33:42.003Z,-23813.34
2023-05-06T15:35:44.945Z,-23824.00
2023-05-06T15:37:47.739Z,-23820.56
2023-05-06T15:39:50.654Z,-23816.81
2023-05-06T15:41:53.515Z,-23808.31
2023-05-06T15:43:59.087Z,-23816.66
2023-05-06T15:46:01.930Z,-23815.22
2023-05-06T15:48:04.928Z,-23815.38
2023-05-06T15:50:20.140Z,-23820.09
2023-05-06T15:52:31.552Z,-23817.13
2023-05-06T15:54:37.611Z,-23807.53
2023-05-06T15:56:41.561Z,-23818.69
2023-05-06T15:58:45.010Z,-23813.34
2023-05-06T16:00:49.227Z,-23811.31
2023-05-06T16:02:52.174Z,-23816.81
2023-05-06T16:04:55.368Z,-23818.38
2023-05-06T16:06:58.740Z,-23819.00
2023-05-06T16:09:01.491Z,-23813.34
2023-05-06T16:11:05.384Z,-23811.47
2023-05-06T16:13:08.424Z,-23812.41
2023-05-06T16:15:11.853Z,-23803.63
2023-05-06T16:17:16.750Z,-23801.91
2023-05-06T16:19:19.525Z,-23806.75
2023-05-06T16:21:22.331Z,-23803.78
2023-05-06T16:23:25.692Z,-23811.16
2023-05-06T16:25:28.410Z,-23808.03
2023-05-06T16:27:31.204Z,-23810.22
2023-05-06T16:29:34.028Z,-23806.91
2023-05-06T16:31:38.003Z,-23805.19
2023-05-06T16:33:42.358Z,-23810.53
2023-05-06T16:35:46.434Z,-23803.47
2023-05-06T16:37:49.237Z,-23810.53
2023-05-06T16:39:52.076Z,-23804.88
2023-05-06T16:41:55.236Z,-23804.88
2023-05-06T16:43:58.036Z,-23807.84
2023-05-06T16:46:02.313Z,-23812.09
2023-05-06T16:48:05.262Z,-23808.97
2023-05-06T16:50:10.168Z,-23803.94
2023-05-06T16:52:13.166Z,-23801.28
2023-05-06T16:54:16.026Z,-23803.63
2023-05-06T16:56:18.853Z,-23803.78
2023-05-06T16:58:21.935Z,-23799.22
2023-05-06T17:00:25.874Z,-23802.06
2023-05-06T17:02:28.877Z,-23794.38
2023-05-06T17:04:31.665Z,-23796.25
2023-05-06T17:06:35.942Z,-23791.22
2023-05-06T17:08:38.745Z,-23789.50
2023-05-06T17:10:45.972Z,-23791.69
2023-05-06T17:12:48.957Z,-23787.28
2023-05-06T17:14:51.768Z,-23790.13
2023-05-06T17:16:54.573Z,-23788.72
2023-05-06T17:18:57.504Z,-23787.44
2023-05-06T17:21:00.296Z,-23787.28
2023-05-06T17:23:04.504Z,-23786.97
2023-05-06T17:25:08.179Z,-23784.47
2023-05-06T17:27:10.973Z,-23786.34
2023-05-06T17:29:13.681Z,-23781.97
2023-05-06T17:31:16.491Z,-23780.69
2023-05-06T17:33:19.344Z,-23779.59
2023-05-06T17:35:22.269Z,-23776.63
2023-05-06T17:37:25.122Z,-23778.81
2023-05-06T17:39:29.263Z,-23777.25
2023-05-06T17:41:32.126Z,-23777.56
2023-05-06T17:43:35.108Z,-23771.44
2023-05-06T17:45:37.971Z,-23774.56
2023-05-06T17:47:40.901Z,-23776.13
2023-05-06T17:49:43.878Z,-23772.53
2023-05-06T17:51:46.712Z,-23767.97
2023-05-06T17:53:49.471Z,-23764.38
2023-05-06T17:55:53.613Z,-23765.63
2023-05-06T17:57:56.364Z,-23765.00
2023-05-06T17:59:59.177Z,-23767.50
2023-05-06T18:02:01.999Z,-23762.16
2023-05-06T18:04:04.927Z,-23763.88
2023-05-06T18:06:07.989Z,-23760.28
2023-05-06T18:08:10.726Z,-23763.75
2023-05-06T18:10:14.035Z,-23765.63
2023-05-06T18:12:18.305Z,-23759.97
2023-05-06T18:14:21.115Z,-23755.88
2023-05-06T18:16:24.005Z,-23752.72
2023-05-06T18:18:26.916Z,-23751.47
2023-05-06T18:20:29.665Z,-23751.63
2023-05-06T18:22:32.502Z,-23744.41
2023-05-06T18:24:35.909Z,-23746.75
2023-05-06T18:26:44.992Z,-23743.78
2023-05-06T18:28:50.043Z,-23739.06
2023-05-06T18:30:52.902Z,-23741.88
2023-05-06T18:32:56.752Z,-23736.38
2023-05-06T18:34:59.947Z,-23733.56
2023-05-06T18:37:02.725Z,-23733.84
2023-05-06T18:39:05.885Z,-23732.44
2023-05-06T18:41:09.093Z,-23733.56
2023-05-06T18:43:11.896Z,-23729.94
2023-05-06T18:45:16.359Z,-23728.34
2023-05-06T18:47:19.721Z,-23732.28
2023-05-06T18:49:23.198Z,-23722.38
2023-05-06T18:51:26.281Z,-23724.59
2023-05-06T18:53:29.088Z,-23721.59
2023-05-06T18:55:31.867Z,-23718.44
2023-05-06T18:57:34.665Z,-23713.72
2023-05-06T18:59:37.524Z,-23715.13
2023-05-06T19:01:41.661Z,-23712.94
2023-05-06T19:03:44.590Z,-23712.16
2023-05-06T19:05:47.457Z,-23711.50
2023-05-06T19:07:50.266Z,-23705.53
2023-05-06T19:09:53.088Z,-23701.91
2023-05-06T19:11:55.839Z,-23699.25
2023-05-06T19:13:58.630Z,-23699.72
2023-05-06T19:16:01.397Z,-23709.16
2023-05-06T19:18:05.900Z,-23712.78
2023-05-06T19:20:10.583Z,-23719.06
2023-05-06T19:22:13.782Z,-23709.78
2023-05-06T19:24:16.566Z,-23709.31
2023-05-06T19:26:19.386Z,-23711.19
2023-05-06T19:28:22.223Z,-23710.25
2023-05-06T19:30:25.102Z,-23704.59
2023-05-06T19:32:27.959Z,-23700.34
2023-05-06T19:34:32.261Z,-23696.72
2023-05-06T19:36:35.202Z,-23697.97
2023-05-06T19:38:38.050Z,-23697.66
2023-05-06T19:40:40.859Z,-23693.25
2023-05-06T19:42:43.647Z,-23697.34
2023-05-06T19:44:48.284Z,-23700.03
2023-05-06T19:46:54.377Z,-23704.75
2023-05-06T19:48:58.142Z,-23702.53
2023-05-06T19:51:02.256Z,-23697.66
2023-05-06T19:53:05.297Z,-23704.91
2023-05-06T19:55:09.333Z,-23701.28
2023-05-06T19:57:12.298Z,-23703.47
2023-05-06T19:59:15.058Z,-23710.25
2023-05-06T20:01:21.759Z,-23703.97
2023-05-06T20:03:25.355Z,-23706.31
2023-05-06T20:05:30.916Z,-23706.94
2023-05-06T20:07:35.115Z,-23707.72
2023-05-06T20:09:38.150Z,-23710.41
2023-05-06T20:11:41.129Z,-23702.53
2023-05-06T20:13:43.886Z,-23706.31
2023-05-06T20:15:47.530Z,-23698.91
2023-05-06T20:17:50.468Z,-23708.38
2023-05-06T20:19:54.378Z,-23701.44
2023-05-06T20:21:57.709Z,-23703.34
2023-05-06T20:24:01.957Z,-23700.19
2023-05-06T20:26:04.719Z,-23697.97
2023-05-06T20:28:07.645Z,-23703.97
2023-05-06T20:30:11.080Z,-23699.72
2023-05-06T20:32:13.933Z,-23696.25
2023-05-06T20:34:16.840Z,-23699.25
2023-05-06T20:36:19.622Z,-23699.72
2023-05-06T20:38:22.460Z,-23699.38
2023-05-06T20:40:26.755Z,-23699.88
2023-05-06T20:42:29.672Z,-23689.78
2023-05-06T20:44:32.583Z,-23696.56
2023-05-06T20:46:35.441Z,-23698.13
2023-05-06T20:48:38.170Z,-23695.16
2023-05-06T20:50:41.060Z,-23687.25
2023-05-06T20:52:45.605Z,-23695.44
2023-05-06T20:54:48.713Z,-23698.59
2023-05-06T20:56:52.966Z,-23692.63
2023-05-06T20:58:56.713Z,-23684.59
2023-05-06T21:00:59.759Z,-23686.16
2023-05-06T21:03:02.664Z,-23679.38
2023-05-06T21:05:06.314Z,-23685.38
2023-05-06T21:07:09.619Z,-23688.22
2023-05-06T21:09:12.447Z,-23677.81
2023-05-06T21:11:15.378Z,-23683.31
2023-05-06T21:13:19.573Z,-23680.47
2023-05-06T21:15:22.474Z,-23686.94
2023-05-06T21:17:25.441Z,-23685.38
2023-05-06T21:19:28.214Z,-23681.28
2023-05-06T21:21:32.591Z,-23685.38
2023-05-06T21:23:35.848Z,-23681.44
2023-05-06T21:25:38.669Z,-23681.28
2023-05-06T21:27:41.438Z,-23680.66
2023-05-06T21:29:45.756Z,-23679.38
2023-05-06T21:31:48.692Z,-23675.13
2023-05-06T21:33:54.722Z,-23677.50
2023-05-06T21:35:57.540Z,-23677.50
2023-05-06T21:38:00.336Z,-23677.81
2023-05-06T21:40:04.440Z,-23679.38
2023-05-06T21:42:07.333Z,-23677.81
2023-05-06T21:44:10.395Z,-23676.06
2023-05-06T21:46:14.574Z,-23676.84
2023-05-06T21:48:17.403Z,-23677.97
2023-05-06T21:50:20.312Z,-23678.75
2023-05-06T21:52:23.156Z,-23673.41
2023-05-06T21:54:26.353Z,-23671.97
2023-05-06T21:56:29.589Z,-23674.66
2023-05-06T21:58:32.320Z,-23670.25
2023-05-06T22:00:35.244Z,-23672.75
2023-05-06T22:02:40.009Z,-23670.88
2023-05-06T22:04:43.088Z,-23668.34
2023-05-06T22:06:45.854Z,-23668.66
2023-05-06T22:08:48.599Z,-23668.66
2023-05-06T22:10:51.470Z,-23662.53
2023-05-06T22:12:54.350Z,-23664.88
2023-05-06T22:14:57.538Z,-23663.47
2023-05-06T22:17:01.615Z,-23665.50
2023-05-06T22:19:06.789Z,-23665.19
2023-05-06T22:21:09.983Z,-23660.31
2023-05-06T22:23:12.799Z,-23656.06
2023-05-06T22:25:15.587Z,-23654.47
2023-05-06T22:27:18.321Z,-23654.16
2023-05-06T22:29:21.153Z,-23656.84
2023-05-06T22:31:24.688Z,-23649.44
2023-05-06T22:33:27.938Z,-23648.78
2023-05-06T22:35:32.106Z,-23648.16
2023-05-06T22:37:34.885Z,-23650.06
2023-05-06T22:39:37.742Z,-23652.59
2023-05-06T22:41:40.584Z,-23649.13
2023-05-06T22:43:43.356Z,-23645.00
2023-05-06T22:45:46.239Z,-23642.47
2023-05-06T22:47:49.029Z,-23639.97
2023-05-06T22:49:51.809Z,-23635.88
2023-05-06T22:51:56.099Z,-23637.59
2023-05-06T22:53:58.857Z,-23632.56
2023-05-06T22:56:01.760Z,-23635.22
2023-05-06T22:58:04.537Z,-23628.28
2023-05-06T23:00:08.828Z,-23623.88
2023-05-06T23:02:11.741Z,-23623.41
2023-05-06T23:04:14.572Z,-23623.56
2023-05-06T23:06:18.120Z,-23623.22
2023-05-06T23:08:22.272Z,-23623.56
2023-05-06T23:10:25.131Z,-23621.97
2023-05-06T23:12:28.743Z,-23623.22
2023-05-06T23:14:31.476Z,-23624.50
2023-05-06T23:16:34.327Z,-23624.34
2023-05-06T23:18:37.297Z,-23621.50
2023-05-06T23:20:40.090Z,-23620.72
2023-05-06T23:22:42.938Z,-23620.09
2023-05-06T23:24:47.105Z,-23622.28
2023-05-06T23:26:49.900Z,-23619.75
2023-05-06T23:28:52.664Z,-23622.59
2023-05-06T23:30:55.510Z,-23620.41
2023-05-06T23:32:58.452Z,-23624.03
2023-05-06T23:35:02.600Z,-23621.50
2023-05-06T23:37:05.388Z,-23620.41
2023-05-06T23:39:11.504Z,-23622.28
2023-05-06T23:41:15.669Z,-23621.03
2023-05-06T23:43:18.537Z,-23623.56